Time;durP1;ratioP1;P1;durP2;ratioP2;P2;SDS_P1;SDS_P2;PMS_P1;PMS_P2;Temp;Humidity;BMP_temperature;BMP_pressure;BME280_temperature;BME280_humidity;BME280_pressure;Samples;Min_cycle;Max_cycle;Signal;HPM_P1;HPM_P2
2023/03/28 00:00:57;;;;;;;3.05;1.88;;;23.30;65.80;;;;;;6080197;28;94157;-74
2023/03/28 00:04:00;;;;;;;1.98;1.65;;;23.30;65.80;;;;;;6081901;28;93246;-74
2023/03/28 00:07:02;;;;;;;1.60;1.33;;;23.30;65.80;;;;;;6081740;28;94546;-74
2023/03/28 00:10:05;;;;;;;2.03;1.70;;;23.30;65.80;;;;;;6080152;28;94129;-74
2023/03/28 00:13:09;;;;;;;1.63;1.52;;;23.30;65.80;;;;;;6082240;28;94138;-73
2023/03/28 00:16:12;;;;;;;1.65;1.45;;;23.20;65.80;;;;;;6081539;28;94384;-74
2023/03/28 00:19:16;;;;;;;1.60;1.50;;;23.20;65.70;;;;;;6082889;28;92386;-75
2023/03/28 00:22:18;;;;;;;2.10;1.60;;;23.20;65.80;;;;;;6082453;28;94072;-74
2023/03/28 00:25:20;;;;;;;1.65;1.30;;;23.20;65.70;;;;;;6080901;28;94424;-74
2023/03/28 00:28:24;;;;;;;1.70;1.60;;;23.20;65.70;;;;;;6079807;28;95061;-73
2023/03/28 00:31:26;;;;;;;1.70;1.60;;;23.20;65.60;;;;;;6079389;28;94154;-74
2023/03/28 00:34:29;;;;;;;1.65;1.55;;;23.20;65.60;;;;;;6081204;28;94510;-75
2023/03/28 00:37:31;;;;;;;2.38;1.50;;;23.10;65.50;;;;;;6080916;28;94580;-74
2023/03/28 00:40:37;;;;;;;1.77;1.40;;;23.10;65.60;;;;;;6080730;28;94067;-73
2023/03/28 00:43:42;;;;;;;1.63;1.52;;;23.10;65.60;;;;;;6080098;28;93369;-74
2023/03/28 00:46:44;;;;;;;1.63;1.40;;;23.10;65.70;;;;;;6081370;28;93018;-75
2023/03/28 00:49:51;;;;;;;1.73;1.50;;;23.10;65.70;;;;;;6081378;28;93728;-74
2023/03/28 00:52:58;;;;;;;1.40;1.30;;;23.10;65.70;;;;;;6077531;28;94178;-73
2023/03/28 00:56:04;;;;;;;1.67;1.45;;;23.10;65.70;;;;;;6087099;28;93164;-74
2023/03/28 00:59:12;;;;;;;1.95;1.60;;;23.10;65.70;;;;;;6080718;28;95080;-73
2023/03/28 01:02:14;;;;;;;1.55;1.40;;;23.10;65.50;;;;;;6079612;28;94461;-73
2023/03/28 01:05:16;;;;;;;1.60;1.20;;;23.10;65.70;;;;;;6079756;28;94107;-74
2023/03/28 01:08:22;;;;;;;1.85;1.38;;;23.00;65.60;;;;;;6080762;28;94535;-74
2023/03/28 01:11:25;;;;;;;1.70;1.20;;;23.00;65.60;;;;;;6076596;28;94124;-74
2023/03/28 01:14:30;;;;;;;1.30;1.20;;;23.00;65.70;;;;;;6081389;28;94754;-75
2023/03/28 01:17:32;;;;;;;1.52;1.30;;;23.00;65.70;;;;;;6079392;28;95408;-74
2023/03/28 01:20:53;;;;;;;1.60;1.20;;;23.00;65.70;;;;;;6080566;28;93400;-73
2023/03/28 01:24:38;;;;;;;1.40;1.30;;;23.00;65.70;;;;;;6081028;28;94197;-74
2023/03/28 01:27:51;;;;;;;2.55;1.83;;;23.00;65.70;;;;;;6079922;28;94529;-74
2023/03/28 01:31:13;;;;;;;1.70;1.40;;;23.00;65.60;;;;;;6084293;28;95407;-73
2023/03/28 01:34:56;;;;;;;1.40;1.30;;;23.00;65.60;;;;;;6084855;28;94052;-73
2023/03/28 01:38:05;;;;;;;1.20;1.10;;;23.00;65.60;;;;;;5989995;29;94460;-74
2023/03/28 01:41:15;;;;;;;1.30;1.20;;;23.00;65.60;;;;;;6083879;28;94198;-74
2023/03/28 01:44:27;;;;;;;2.58;1.40;;;22.90;65.50;;;;;;6075799;28;94426;-74
2023/03/28 01:47:37;;;;;;;1.38;1.27;;;23.00;65.60;;;;;;6080408;28;94055;-75
2023/03/28 01:50:44;;;;;;;1.13;1.02;;;23.00;65.70;;;;;;6083915;28;94232;-75
2023/03/28 01:53:56;;;;;;;1.30;1.20;;;22.90;65.60;;;;;;6084394;28;93633;-74
2023/03/28 01:57:09;;;;;;;1.40;1.30;;;22.90;65.60;;;;;;6084357;28;94141;-74
2023/03/28 02:00:18;;;;;;;2.33;1.50;;;22.90;65.60;;;;;;6083569;28;94130;-74
2023/03/28 02:03:25;;;;;;;1.20;1.10;;;22.90;65.70;;;;;;6084619;28;95066;-74
2023/03/28 02:06:29;;;;;;;1.27;1.13;;;22.90;65.70;;;;;;6081878;28;93194;-75
2023/03/28 02:09:36;;;;;;;1.38;1.20;;;22.90;65.60;;;;;;6082205;28;94039;-75
2023/03/28 02:12:43;;;;;;;1.38;1.10;;;22.90;65.50;;;;;;6085475;28;94154;-75
2023/03/28 02:15:50;;;;;;;1.17;1.00;;;22.90;65.50;;;;;;6083444;28;94143;-74
2023/03/28 02:18:56;;;;;;;1.30;1.10;;;22.90;65.50;;;;;;6083380;28;94176;-75
2023/03/28 02:22:03;;;;;;;1.38;1.10;;;22.90;65.50;;;;;;6082384;28;94102;-75
2023/03/28 02:25:08;;;;;;;1.30;1.20;;;22.80;65.60;;;;;;6084166;28;93739;-74
2023/03/28 02:28:12;;;;;;;1.13;1.02;;;22.90;65.60;;;;;;6082161;28;94116;-75
2023/03/28 02:31:15;;;;;;;1.40;1.30;;;22.80;65.50;;;;;;6083088;28;94140;-75
2023/03/28 02:34:17;;;;;;;3.13;1.60;;;22.80;65.50;;;;;;6083325;28;95419;-74
2023/03/28 02:37:29;;;;;;;1.95;1.30;;;22.80;65.20;;;;;;6082540;28;94201;-75
2023/03/28 02:40:51;;;;;;;1.70;1.30;;;22.80;65.10;;;;;;6084325;28;93131;-75
2023/03/28 02:44:19;;;;;;;2.10;1.50;;;22.70;65.20;;;;;;6083476;28;94069;-76
2023/03/28 02:47:29;;;;;;;2.25;1.30;;;22.80;65.40;;;;;;6083393;28;94081;-74
2023/03/28 02:50:39;;;;;;;2.13;1.50;;;22.80;65.40;;;;;;6084018;28;94296;-76
2023/03/28 02:53:51;;;;;;;1.58;1.30;;;22.80;65.40;;;;;;6082771;28;94121;-75
2023/03/28 02:57:02;;;;;;;1.38;1.27;;;22.70;65.20;;;;;;6083035;28;93388;-75
2023/03/28 03:00:10;;;;;;;2.90;1.90;;;22.70;65.30;;;;;;6082321;28;94126;-74
2023/03/28 03:03:12;;;;;;;2.05;1.40;;;22.70;65.30;;;;;;6084474;28;94106;-75
2023/03/28 03:06:16;;;;;;;1.60;1.50;;;22.70;65.30;;;;;;6082842;28;96653;-75
2023/03/28 03:09:18;;;;;;;1.77;1.52;;;22.70;65.30;;;;;;6082532;28;94597;-75
2023/03/28 03:12:22;;;;;;;2.00;1.60;;;22.70;65.40;;;;;;6080654;28;94105;-75
2023/03/28 03:15:29;;;;;;;2.90;1.90;;;22.70;65.40;;;;;;6081777;28;94113;-75
2023/03/28 03:18:33;;;;;;;2.97;1.80;;;22.70;65.30;;;;;;6083800;28;94083;-75
2023/03/28 03:21:36;;;;;;;1.90;1.67;;;22.70;65.40;;;;;;6084196;28;94321;-75
2023/03/28 03:24:38;;;;;;;1.80;1.60;;;22.70;65.40;;;;;;6079594;28;94583;-73
2023/03/28 03:27:42;;;;;;;1.70;1.60;;;22.70;65.40;;;;;;6082176;28;93482;-74
2023/03/28 03:30:44;;;;;;;2.55;1.65;;;22.70;65.70;;;;;;6081886;28;94316;-73
2023/03/28 03:33:46;;;;;;;1.90;1.60;;;22.70;65.40;;;;;;6082233;28;94150;-74
2023/03/28 03:36:49;;;;;;;1.73;1.60;;;22.70;65.30;;;;;;6082050;28;95055;-74
2023/03/28 03:39:51;;;;;;;3.03;2.10;;;22.70;65.30;;;;;;6079664;28;92963;-73
2023/03/28 03:42:54;;;;;;;1.83;1.60;;;22.80;65.20;;;;;;6084007;28;94155;-74
2023/03/28 03:45:57;;;;;;;1.95;1.70;;;22.80;65.20;;;;;;6070230;28;94046;-73
2023/03/28 03:48:59;;;;;;;2.00;1.80;;;22.80;65.00;;;;;;6081723;28;94142;-74
2023/03/28 03:52:02;;;;;;;1.85;1.65;;;22.90;65.00;;;;;;6081659;28;93304;-73
2023/03/28 03:55:05;;;;;;;1.90;1.70;;;22.90;64.90;;;;;;6082883;28;94126;-73
2023/03/28 03:58:08;;;;;;;1.75;1.65;;;22.90;64.80;;;;;;6082372;28;93490;-74
2023/03/28 04:01:12;;;;;;;1.88;1.70;;;22.90;64.70;;;;;;6083194;28;94337;-73
2023/03/28 04:04:15;;;;;;;1.73;1.63;;;23.00;64.70;;;;;;6080153;28;94323;-73
2023/03/28 04:07:17;;;;;;;1.73;1.58;;;23.00;64.60;;;;;;6080703;28;95363;-73
2023/03/28 04:10:19;;;;;;;1.50;1.40;;;23.00;64.50;;;;;;6079773;28;94518;-74
2023/03/28 04:13:22;;;;;;;2.60;2.05;;;23.00;64.40;;;;;;6079662;28;94023;-73
2023/03/28 04:16:24;;;;;;;1.60;1.50;;;23.10;64.40;;;;;;6083274;28;94301;-74
2023/03/28 04:19:27;;;;;;;1.83;1.73;;;23.00;64.30;;;;;;6072698;28;93926;-74
2023/03/28 04:22:29;;;;;;;1.95;1.60;;;23.10;64.30;;;;;;6082581;28;94008;-73
2023/03/28 04:25:31;;;;;;;1.60;1.48;;;23.10;64.20;;;;;;6082336;28;94346;-74
2023/03/28 04:28:35;;;;;;;1.60;1.50;;;23.10;64.20;;;;;;6081730;28;93617;-74
2023/03/28 04:31:38;;;;;;;2.08;1.80;;;23.10;64.00;;;;;;6082386;28;93086;-74
2023/03/28 04:34:40;;;;;;;2.67;1.77;;;23.20;64.10;;;;;;6083170;28;94606;-75
2023/03/28 04:37:42;;;;;;;1.90;1.60;;;23.10;64.00;;;;;;6081107;28;95375;-74
2023/03/28 04:40:44;;;;;;;1.77;1.67;;;23.20;64.00;;;;;;6081920;28;94081;-73
2023/03/28 04:43:48;;;;;;;2.03;1.60;;;23.20;64.00;;;;;;6082089;28;94471;-74
2023/03/28 04:46:50;;;;;;;1.98;1.70;;;23.20;64.00;;;;;;6080792;28;94186;-74
2023/03/28 04:49:53;;;;;;;2.35;1.60;;;23.20;63.90;;;;;;6079692;28;94127;-74
2023/03/28 04:52:55;;;;;;;2.65;1.95;;;23.30;63.90;;;;;;6081769;28;94398;-74
2023/03/28 04:55:58;;;;;;;2.42;1.60;;;23.20;63.70;;;;;;6076540;28;94130;-72
2023/03/28 04:59:02;;;;;;;2.13;1.70;;;23.20;63.80;;;;;;6078417;28;93791;-70
2023/03/28 05:02:04;;;;;;;3.92;1.45;;;23.30;64.00;;;;;;6078533;28;94446;-71
2023/03/28 05:05:07;;;;;;;2.17;1.70;;;23.30;64.20;;;;;;6081121;28;94136;-70
2023/03/28 05:08:10;;;;;;;2.00;1.63;;;23.30;64.20;;;;;;6080113;28;95141;-69
2023/03/28 05:11:12;;;;;;;1.85;1.65;;;23.30;64.20;;;;;;6080900;28;94397;-71
2023/03/28 05:14:16;;;;;;;3.03;1.90;;;23.30;64.30;;;;;;6077073;28;94301;-70
2023/03/28 05:17:18;;;;;;;2.22;1.95;;;23.40;64.30;;;;;;6077305;28;94202;-70
2023/03/28 05:20:20;;;;;;;2.00;1.70;;;23.40;64.20;;;;;;6081680;28;94219;-70
2023/03/28 05:23:22;;;;;;;2.05;1.65;;;23.40;64.20;;;;;;6080682;28;93997;-70
2023/03/28 05:26:24;;;;;;;1.52;1.40;;;23.40;64.20;;;;;;6079996;28;94131;-71
2023/03/28 05:29:27;;;;;;;2.60;1.40;;;23.40;64.10;;;;;;6081296;28;93542;-70
2023/03/28 05:32:30;;;;;;;2.90;1.40;;;23.40;64.10;;;;;;6080663;28;93993;-70
2023/03/28 05:35:32;;;;;;;2.25;1.50;;;23.50;64.00;;;;;;6079853;28;94517;-70
2023/03/28 05:38:34;;;;;;;1.70;1.40;;;23.50;63.80;;;;;;6078458;28;95109;-70
2023/03/28 05:41:36;;;;;;;4.70;2.58;;;23.50;63.80;;;;;;6074200;28;94171;-70
2023/03/28 05:44:39;;;;;;;1.85;1.50;;;23.50;63.70;;;;;;6080595;28;94594;-70
2023/03/28 05:47:41;;;;;;;1.60;1.45;;;23.50;63.70;;;;;;6071437;28;94214;-70
2023/03/28 05:50:44;;;;;;;3.08;1.80;;;23.60;63.70;;;;;;6066899;28;94104;-70
2023/03/28 05:53:46;;;;;;;1.70;1.60;;;23.60;63.70;;;;;;6078679;28;94164;-70
2023/03/28 05:56:49;;;;;;;1.77;1.65;;;23.60;63.60;;;;;;6080436;28;94109;-70
2023/03/28 05:59:52;;;;;;;2.20;1.55;;;23.60;63.60;;;;;;6080716;28;92577;-70
2023/03/28 06:02:55;;;;;;;2.25;1.38;;;23.60;63.60;;;;;;6079942;28;94233;-70
2023/03/28 06:05:57;;;;;;;1.95;1.50;;;23.60;63.60;;;;;;6078823;28;94541;-71
2023/03/28 06:08:59;;;;;;;1.60;1.50;;;23.60;63.60;;;;;;6079631;28;95013;-70
2023/03/28 06:12:02;;;;;;;1.65;1.42;;;23.60;63.60;;;;;;6080064;28;94270;-70
2023/03/28 06:15:07;;;;;;;1.80;1.35;;;23.70;63.50;;;;;;6081618;28;94020;-70
2023/03/28 06:18:10;;;;;;;2.50;1.55;;;23.70;63.50;;;;;;6083074;28;94080;-70
2023/03/28 06:21:12;;;;;;;2.38;1.73;;;23.70;63.50;;;;;;6084172;28;94691;-70
2023/03/28 06:24:14;;;;;;;3.05;1.70;;;23.70;63.40;;;;;;6083430;28;95487;-70
2023/03/28 06:27:16;;;;;;;2.55;1.42;;;23.70;63.40;;;;;;6083871;28;94105;-71
2023/03/28 06:30:19;;;;;;;2.78;1.90;;;23.70;63.50;;;;;;6084402;28;93421;-70
2023/03/28 06:33:21;;;;;;;2.97;1.95;;;23.70;63.50;;;;;;6083738;28;94117;-69
2023/03/28 06:36:24;;;;;;;2.10;1.58;;;23.70;63.50;;;;;;6085531;28;94162;-68
2023/03/28 06:39:26;;;;;;;2.33;1.63;;;23.70;63.70;;;;;;6083041;28;95229;-69
2023/03/28 06:42:28;;;;;;;2.63;1.67;;;23.70;63.70;;;;;;6081265;28;94098;-69
2023/03/28 06:45:32;;;;;;;3.35;1.60;;;23.70;63.70;;;;;;6084021;28;94147;-69
2023/03/28 06:48:34;;;;;;;2.55;1.50;;;23.70;63.70;;;;;;6083596;28;94123;-68
2023/03/28 06:51:36;;;;;;;2.22;1.48;;;23.70;63.70;;;;;;6080473;28;94126;-69
2023/03/28 06:54:38;;;;;;;1.63;1.40;;;23.70;63.70;;;;;;6079077;28;94503;-69
2023/03/28 06:57:40;;;;;;;1.90;1.30;;;23.60;63.60;;;;;;6083854;28;94081;-69
2023/03/28 07:00:44;;;;;;;3.55;1.50;;;23.60;63.70;;;;;;6083207;28;93813;-69
2023/03/28 07:03:46;;;;;;;1.90;1.50;;;23.60;63.70;;;;;;6081602;28;94137;-69
2023/03/28 07:06:48;;;;;;;3.22;1.80;;;23.60;63.80;;;;;;6083025;28;94092;-69
2023/03/28 07:09:53;;;;;;;2.47;1.63;;;23.60;63.80;;;;;;6079614;28;95120;-69
2023/03/28 07:12:55;;;;;;;2.50;1.95;;;23.60;63.80;;;;;;6080687;28;94118;-68
2023/03/28 07:16:03;;;;;;;2.75;1.80;;;23.60;63.80;;;;;;6081119;28;94475;-68
2023/03/28 07:19:06;;;;;;;2.50;1.67;;;23.60;63.80;;;;;;6082833;28;94113;-69
2023/03/28 07:22:08;;;;;;;2.78;2.15;;;23.60;63.80;;;;;;6082437;28;94176;-69
2023/03/28 07:25:10;;;;;;;4.22;1.80;;;23.60;63.80;;;;;;6077444;28;94127;-69
2023/03/28 07:28:12;;;;;;;2.33;1.88;;;23.60;63.70;;;;;;6081682;28;94442;-69
2023/03/28 07:31:17;;;;;;;2.45;1.55;;;23.60;63.70;;;;;;6084375;28;93533;-69
2023/03/28 07:34:19;;;;;;;2.15;1.90;;;23.60;63.70;;;;;;6073724;28;94082;-69
2023/03/28 07:37:21;;;;;;;2.60;1.90;;;23.60;63.70;;;;;;6082972;28;93951;-68
2023/03/28 07:40:23;;;;;;;2.75;1.85;;;23.70;63.70;;;;;;6079858;28;95110;-69
2023/03/28 07:43:25;;;;;;;2.92;1.80;;;23.60;63.60;;;;;;6083110;28;94070;-69
2023/03/28 07:46:28;;;;;;;1.95;1.67;;;23.70;63.60;;;;;;6082474;28;94114;-69
2023/03/28 07:49:31;;;;;;;1.73;1.58;;;23.60;63.50;;;;;;6081727;28;94301;-69
2023/03/28 07:52:33;;;;;;;2.28;1.80;;;23.70;63.70;;;;;;6082594;28;93062;-68
2023/03/28 07:55:35;;;;;;;3.55;1.63;;;23.70;63.70;;;;;;6082472;28;93242;-69
2023/03/28 07:58:37;;;;;;;2.05;1.85;;;23.60;63.70;;;;;;6081936;28;94239;-69
2023/03/28 08:01:42;;;;;;;4.28;1.98;;;23.70;63.70;;;;;;6083190;28;93337;-69
2023/03/28 08:04:44;;;;;;;3.95;2.00;;;23.70;63.70;;;;;;6081616;28;94139;-71
2023/03/28 08:07:46;;;;;;;7.72;5.20;;;23.70;63.70;;;;;;6082086;28;94188;-69
2023/03/28 08:10:49;;;;;;;19.20;15.43;;;23.70;66.10;;;;;;6081513;28;95205;-69
2023/03/28 08:13:51;;;;;;;14.25;10.20;;;23.80;67.10;;;;;;6080264;28;94178;-69
2023/03/28 08:16:55;;;;;;;13.57;8.10;;;23.90;65.40;;;;;;6079268;28;94537;-69
2023/03/28 08:19:57;;;;;;;11.43;7.70;;;23.90;65.40;;;;;;6077489;28;94174;-70
2023/03/28 08:23:01;;;;;;;9.25;7.30;;;23.80;65.30;;;;;;6081261;28;94163;-69
2023/03/28 08:26:06;;;;;;;8.95;6.70;;;23.90;65.20;;;;;;6081894;28;94193;-69
2023/03/28 08:29:08;;;;;;;9.32;6.70;;;23.90;65.40;;;;;;6068874;28;94040;-69
2023/03/28 08:32:11;;;;;;;7.53;6.15;;;23.90;65.40;;;;;;6081059;28;93404;-69
2023/03/28 08:35:13;;;;;;;8.13;6.32;;;23.90;65.40;;;;;;6081690;28;94379;-70
2023/03/28 08:38:17;;;;;;;8.10;5.65;;;23.90;65.40;;;;;;6080635;28;94252;-70
2023/03/28 08:41:37;;;;;;;7.63;5.60;;;23.90;65.50;;;;;;6080681;28;95095;-69
2023/03/28 08:44:57;;;;;;;8.05;5.32;;;23.90;65.50;;;;;;6081832;28;94348;-69
2023/03/28 08:48:14;;;;;;;6.43;5.13;;;24.00;65.70;;;;;;6081383;28;93104;-69
2023/03/28 08:51:24;;;;;;;7.18;5.30;;;24.00;65.70;;;;;;6082136;28;94425;-73
2023/03/28 08:54:31;;;;;;;8.35;4.93;;;23.90;65.70;;;;;;6081565;28;94396;-74
2023/03/28 08:57:35;;;;;;;19.75;5.65;;;24.00;65.90;;;;;;6081153;28;94067;-73
2023/03/28 09:00:38;;;;;;;9.02;5.07;;;24.00;66.20;;;;;;6082101;28;94089;-72
2023/03/28 09:03:41;;;;;;;11.13;5.70;;;24.00;66.20;;;;;;6083722;28;93487;-74
2023/03/28 09:06:45;;;;;;;13.43;5.50;;;24.00;66.30;;;;;;6080577;28;94083;-74
2023/03/28 09:09:54;;;;;;;7.75;5.43;;;24.00;66.60;;;;;;6080713;28;94088;-72
2023/03/28 09:13:13;;;;;;;11.80;5.88;;;24.00;66.80;;;;;;6079673;28;94393;-74
2023/03/28 09:16:36;;;;;;;8.18;5.18;;;24.00;67.10;;;;;;6080575;28;94229;-72
2023/03/28 09:19:58;;;;;;;8.98;5.72;;;24.10;67.40;;;;;;6080818;28;94160;-75
2023/03/28 09:23:22;;;;;;;7.50;4.95;;;24.10;67.40;;;;;;6080131;28;94088;-77
2023/03/28 09:26:27;;;;;;;7.28;4.65;;;24.10;67.40;;;;;;6070722;28;94087;-75
2023/03/28 09:29:32;;;;;;;9.85;5.43;;;24.10;67.50;;;;;;6079037;28;96855;-74
2023/03/28 09:32:37;;;;;;;9.40;5.05;;;24.10;67.40;;;;;;6080088;28;94176;-75
2023/03/28 09:35:41;;;;;;;9.55;5.10;;;24.10;67.30;;;;;;6081600;28;93630;-74
2023/03/28 09:38:46;;;;;;;7.80;5.00;;;24.10;67.30;;;;;;6081147;28;94478;-72
2023/03/28 09:41:53;;;;;;;10.73;5.10;;;24.20;67.70;;;;;;6079752;28;94046;-75
2023/03/28 09:45:03;;;;;;;9.52;5.22;;;24.20;68.10;;;;;;6077384;28;95108;-74
2023/03/28 09:48:11;;;;;;;6.28;4.70;;;24.20;67.90;;;;;;6079007;28;92943;-75
2023/03/28 09:51:16;;;;;;;8.30;4.85;;;24.20;67.60;;;;;;6082926;28;94272;-74
2023/03/28 09:54:27;;;;;;;5.95;4.25;;;24.20;67.60;;;;;;6084872;28;94475;-78
2023/03/28 09:58:01;;;;;;;5.97;4.72;;;24.20;67.50;;;;;;6085212;28;93109;-74
2023/03/28 10:01:05;;;;;;;9.23;4.28;;;24.20;67.60;;;;;;6082730;28;94449;-74
2023/03/28 10:04:13;;;;;;;6.88;4.63;;;24.30;67.70;;;;;;6084433;28;94194;-74
2023/03/28 10:07:30;;;;;;;8.00;4.78;;;24.20;67.60;;;;;;6084631;28;93491;-73
2023/03/28 10:10:32;;;;;;;7.90;5.18;;;24.20;67.40;;;;;;6083351;28;93037;-73
2023/03/28 10:13:39;;;;;;;7.43;4.40;;;24.30;67.40;;;;;;6086468;28;92116;-74
2023/03/28 10:16:41;;;;;;;7.07;4.65;;;24.20;67.20;;;;;;6084773;28;95138;-73
2023/03/28 10:19:46;;;;;;;8.40;4.80;;;24.20;68.30;;;;;;6083927;28;94154;-74
2023/03/28 10:22:53;;;;;;;7.88;4.85;;;24.30;67.70;;;;;;6084606;28;94194;-73
2023/03/28 10:25:55;;;;;;;7.70;4.70;;;24.30;67.20;;;;;;6082377;28;94966;-71
2023/03/28 10:29:01;;;;;;;5.05;4.13;;;24.40;68.80;;;;;;6081787;28;94170;-74
2023/03/28 10:32:04;;;;;;;6.22;4.32;;;24.40;67.70;;;;;;6082195;28;93095;-75
2023/03/28 10:35:16;;;;;;;7.28;4.40;;;24.50;67.20;;;;;;6083139;28;94253;-72
2023/03/28 10:38:21;;;;;;;6.63;4.38;;;24.50;67.30;;;;;;6084333;28;94319;-72
2023/03/28 10:41:24;;;;;;;7.05;4.82;;;24.50;67.40;;;;;;6082332;28;94261;-72
2023/03/28 10:44:29;;;;;;;6.35;4.50;;;24.50;66.90;;;;;;6081579;28;93156;-73
2023/03/28 10:47:31;;;;;;;5.28;4.15;;;24.50;66.80;;;;;;6074192;28;95375;-70
2023/03/28 10:50:40;;;;;;;5.18;4.30;;;24.50;66.90;;;;;;6083543;28;94163;-72
2023/03/28 10:54:15;;;;;;;12.90;4.40;;;24.50;66.90;;;;;;6081611;28;94547;-72
2023/03/28 10:57:24;;;;;;;6.93;4.25;;;24.50;72.20;;;;;;6074187;28;94328;-71
2023/03/28 11:00:30;;;;;;;5.47;3.72;;;24.60;67.60;;;;;;6083991;28;94220;-72
2023/03/28 11:03:47;;;;;;;4.63;3.70;;;24.60;67.10;;;;;;6082768;28;94032;-71
2023/03/28 11:06:54;;;;;;;6.45;3.70;;;24.50;66.70;;;;;;6083110;28;94202;-71
2023/03/28 11:10:04;;;;;;;5.28;3.60;;;24.50;66.10;;;;;;6073779;28;93774;-72
2023/03/28 11:13:20;;;;;;;6.05;3.55;;;24.50;66.20;;;;;;6080310;28;93823;-72
2023/03/28 11:16:36;;;;;;;4.05;3.47;;;24.50;66.00;;;;;;6084309;28;94105;-71
2023/03/28 11:20:07;;;;;;;4.45;3.28;;;24.60;66.00;;;;;;6081937;28;95313;-72
2023/03/28 11:23:25;;;;;;;3.83;3.30;;;24.50;65.90;;;;;;6071928;28;94671;-72
2023/03/28 11:26:38;;;;;;;5.45;3.47;;;24.50;65.90;;;;;;6072865;28;94144;-72
2023/03/28 11:29:45;;;;;;;3.92;3.35;;;24.50;65.90;;;;;;6070329;28;94177;-72
2023/03/28 11:32:51;;;;;;;4.40;3.10;;;24.50;65.90;;;;;;6081691;28;94843;-71
2023/03/28 11:35:57;;;;;;;3.92;3.25;;;24.60;66.00;;;;;;6082350;28;94157;-71
2023/03/28 11:39:05;;;;;;;4.70;3.25;;;24.60;65.90;;;;;;6082370;28;94193;-71
2023/03/28 11:42:13;;;;;;;5.97;3.50;;;24.60;65.90;;;;;;6082608;28;93321;-72
2023/03/28 11:45:26;;;;;;;5.45;3.28;;;24.50;65.90;;;;;;6082459;28;94159;-72
2023/03/28 11:48:34;;;;;;;15.90;3.92;;;24.60;65.90;;;;;;6081403;28;94227;-74
2023/03/28 11:51:42;;;;;;;13.98;3.72;;;24.60;66.30;;;;;;6081134;28;95363;-72
2023/03/28 11:54:48;;;;;;;6.90;2.30;;;24.70;64.20;;;;;;6081816;28;94206;-74
2023/03/28 11:57:56;;;;;;;7.28;2.03;;;24.70;58.10;;;;;;6077648;28;94060;-71
2023/03/28 12:01:03;;;;;;;3.03;1.95;;;24.70;53.80;;;;;;6081994;28;94154;-70
2023/03/28 12:04:11;;;;;;;3.08;1.67;;;24.50;52.00;;;;;;6081371;28;94124;-70
2023/03/28 12:07:19;;;;;;;4.13;1.67;;;24.50;52.00;;;;;;6081496;28;94518;-71
2023/03/28 12:10:26;;;;;;;4.90;1.70;;;24.50;52.70;;;;;;6076413;28;94577;-71
2023/03/28 12:13:36;;;;;;;3.38;1.42;;;24.40;54.30;;;;;;6081660;28;92633;-70
2023/03/28 12:16:44;;;;;;;2.20;1.60;;;24.50;54.40;;;;;;6082015;28;94258;-69
2023/03/28 12:19:47;;;;;;;4.38;1.50;;;24.50;55.00;;;;;;6081325;28;94220;-71
2023/03/28 12:22:54;;;;;;;2.17;1.35;;;24.50;55.50;;;;;;6081307;28;95114;-71
2023/03/28 12:26:03;;;;;;;2.85;1.20;;;24.50;55.90;;;;;;6081161;28;94249;-70
2023/03/28 12:29:16;;;;;;;2.78;1.42;;;24.50;56.30;;;;;;6080836;28;94206;-70
2023/03/28 12:32:33;;;;;;;2.33;1.48;;;24.40;56.60;;;;;;6081121;28;94409;-71
2023/03/28 12:35:43;;;;;;;1.60;1.23;;;24.50;57.00;;;;;;6081224;28;94263;-70
2023/03/28 12:38:53;;;;;;;2.25;1.40;;;24.50;57.30;;;;;;6081466;28;94082;-71
2023/03/28 12:41:57;;;;;;;2.40;1.40;;;24.50;57.50;;;;;;6081424;28;92993;-71
2023/03/28 12:45:03;;;;;;;2.97;1.38;;;24.40;57.70;;;;;;6080876;28;93435;-70
2023/03/28 12:48:07;;;;;;;3.72;1.30;;;24.40;58.00;;;;;;6081138;28;94643;-71
2023/03/28 12:51:15;;;;;;;2.20;1.50;;;24.40;58.20;;;;;;6080650;28;94005;-71
2023/03/28 12:54:26;;;;;;;4.07;1.50;;;24.40;58.30;;;;;;6081423;28;95024;-70
2023/03/28 12:57:46;;;;;;;2.90;1.42;;;24.40;58.50;;;;;;6080151;28;94296;-71
2023/03/28 13:01:13;;;;;;;3.28;1.20;;;24.40;58.60;;;;;;6082005;28;94140;-70
2023/03/28 13:04:26;;;;;;;1.52;1.25;;;24.40;58.80;;;;;;6081441;28;94089;-71
2023/03/28 13:07:36;;;;;;;1.85;1.30;;;24.40;59.00;;;;;;6078096;28;94308;-70
2023/03/28 13:10:45;;;;;;;1.75;1.40;;;24.40;59.10;;;;;;6081282;28;94432;-71
2023/03/28 13:13:54;;;;;;;2.17;1.45;;;24.40;59.10;;;;;;6079885;28;94065;-70
2023/03/28 13:16:58;;;;;;;1.88;1.38;;;24.40;59.20;;;;;;6081810;28;93405;-70
2023/03/28 13:20:24;;;;;;;1.35;1.13;;;24.40;59.30;;;;;;6081925;28;94236;-72
2023/03/28 13:23:45;;;;;;;2.78;1.60;;;24.40;59.40;;;;;;6071591;28;94298;-71
2023/03/28 13:26:55;;;;;;;2.05;1.40;;;24.40;59.50;;;;;;6084190;28;95116;-71
2023/03/28 13:30:02;;;;;;;2.78;1.50;;;24.40;59.60;;;;;;6084646;28;93297;-70
2023/03/28 13:33:15;;;;;;;2.22;1.65;;;24.40;59.70;;;;;;6085055;28;94286;-72
2023/03/28 13:36:26;;;;;;;2.33;1.42;;;24.40;59.80;;;;;;6084139;28;94019;-71
2023/03/28 13:39:28;;;;;;;2.20;1.40;;;24.40;59.90;;;;;;6086015;28;94089;-71
2023/03/28 13:42:32;;;;;;;2.13;1.30;;;24.30;59.90;;;;;;6085674;28;94157;-71
2023/03/28 13:45:37;;;;;;;2.05;1.48;;;24.30;60.00;;;;;;6081929;28;93899;-71
2023/03/28 13:48:46;;;;;;;2.72;1.50;;;24.30;60.00;;;;;;6084530;28;93661;-71
2023/03/28 13:51:58;;;;;;;2.38;1.60;;;24.30;60.10;;;;;;6084249;28;94110;-71
2023/03/28 13:55:01;;;;;;;2.70;1.40;;;24.30;60.30;;;;;;6084686;28;94244;-71
2023/03/28 13:58:04;;;;;;;1.63;1.40;;;24.30;60.30;;;;;;6083767;28;95079;-73
2023/03/28 14:01:15;;;;;;;1.55;1.20;;;24.30;60.50;;;;;;6083496;28;92967;-73
2023/03/28 14:04:21;;;;;;;2.40;1.45;;;24.30;60.60;;;;;;6084241;28;93311;-73
2023/03/28 14:07:28;;;;;;;1.95;1.30;;;24.30;60.60;;;;;;6084244;28;94224;-73
2023/03/28 14:10:31;;;;;;;1.75;1.50;;;24.30;60.70;;;;;;6083460;28;94112;-72
2023/03/28 14:13:33;;;;;;;1.83;1.25;;;24.30;60.60;;;;;;6084203;28;94109;-72
2023/03/28 14:16:36;;;;;;;2.17;1.40;;;24.30;60.80;;;;;;6084623;28;92909;-71
2023/03/28 14:19:42;;;;;;;1.90;1.35;;;24.30;60.80;;;;;;6084189;28;93342;-73
2023/03/28 14:22:49;;;;;;;2.00;1.30;;;24.30;60.90;;;;;;6082120;28;94296;-73
2023/03/28 14:25:51;;;;;;;2.38;1.38;;;24.30;60.90;;;;;;6082330;28;94387;-73
2023/03/28 14:28:57;;;;;;;1.60;1.27;;;24.30;61.00;;;;;;6082924;28;95256;-71
2023/03/28 14:32:00;;;;;;;2.97;1.95;;;24.30;61.10;;;;;;6081490;28;94098;-73
2023/03/28 14:35:17;;;;;;;1.92;1.50;;;24.20;61.10;;;;;;6072497;28;94522;-73
2023/03/28 14:38:29;;;;;;;2.38;1.50;;;24.30;61.10;;;;;;6084321;28;94556;-73
2023/03/28 14:41:36;;;;;;;2.17;1.20;;;24.30;61.20;;;;;;6083649;28;94083;-73
2023/03/28 14:44:41;;;;;;;1.85;1.30;;;24.30;61.20;;;;;;6083719;28;95879;-73
2023/03/28 14:47:44;;;;;;;2.17;1.50;;;24.30;61.30;;;;;;6084115;28;93920;-73
2023/03/28 14:50:49;;;;;;;2.13;1.48;;;24.30;61.40;;;;;;6083087;28;93374;-74
2023/03/28 14:53:52;;;;;;;1.90;1.60;;;24.20;61.30;;;;;;6083459;28;94268;-73
2023/03/28 14:56:58;;;;;;;1.52;1.38;;;24.30;61.50;;;;;;6083050;28;94072;-73
2023/03/28 15:00:02;;;;;;;1.70;1.30;;;24.30;61.60;;;;;;6082664;28;95056;-73
2023/03/28 15:03:07;;;;;;;1.85;1.40;;;24.20;61.50;;;;;;6082608;28;94218;-73
2023/03/28 15:06:17;;;;;;;4.00;1.73;;;24.20;61.60;;;;;;6081845;28;94177;-73
2023/03/28 15:09:26;;;;;;;2.17;1.55;;;24.20;61.70;;;;;;6082117;28;94057;-73
2023/03/28 15:12:29;;;;;;;2.30;1.60;;;24.20;61.60;;;;;;6082866;28;94108;-73
2023/03/28 15:15:33;;;;;;;2.35;1.80;;;24.20;61.60;;;;;;6082214;28;94511;-73
2023/03/28 15:18:40;;;;;;;2.30;1.50;;;24.30;61.80;;;;;;6083701;28;94204;-73
2023/03/28 15:21:55;;;;;;;2.13;1.50;;;24.30;61.80;;;;;;6082593;28;93560;-73
2023/03/28 15:24:58;;;;;;;2.33;1.20;;;24.20;61.70;;;;;;6072353;28;93967;-72
2023/03/28 15:28:02;;;;;;;1.42;1.23;;;24.20;61.80;;;;;;6082219;28;94110;-73
2023/03/28 15:31:07;;;;;;;2.55;1.30;;;24.20;61.80;;;;;;6081341;28;94692;-73
2023/03/28 15:34:11;;;;;;;2.00;1.35;;;24.20;61.80;;;;;;6082977;28;94273;-73
2023/03/28 15:37:19;;;;;;;2.97;1.30;;;24.20;61.80;;;;;;6082208;28;94403;-72
2023/03/28 15:40:26;;;;;;;1.67;1.25;;;24.20;61.80;;;;;;6082586;28;94299;-73
2023/03/28 15:43:36;;;;;;;3.05;1.50;;;24.20;61.80;;;;;;6082818;28;94536;-72
2023/03/28 15:46:38;;;;;;;1.70;1.25;;;24.20;61.80;;;;;;6080426;28;94161;-73
2023/03/28 15:49:40;;;;;;;1.85;1.35;;;24.20;61.70;;;;;;6082046;28;94069;-72
2023/03/28 15:52:44;;;;;;;1.75;1.52;;;24.20;61.70;;;;;;6082774;28;93492;-72
2023/03/28 15:55:48;;;;;;;2.10;1.50;;;24.20;61.70;;;;;;6082923;28;94079;-73
2023/03/28 15:58:51;;;;;;;1.90;1.30;;;24.20;61.70;;;;;;6082569;28;94170;-73
2023/03/28 16:02:20;;;;;;;1.70;1.30;;;24.20;61.80;;;;;;6079980;28;94990;-73
2023/03/28 16:05:32;;;;;;;1.55;1.38;;;24.20;61.80;;;;;;6082414;28;94380;-73
2023/03/28 16:08:46;;;;;;;1.47;1.27;;;24.20;61.80;;;;;;6244224;28;80651;-71